Jacob — V4QW3 — position and weather

sailwx.info

Track history (hours):
 
Tides and Currents Weather Stations Pressure Air Temp Water Temp Dewpoint Dewpoint Depression Visibility Wind Speed Wind Dir Waves Ship Positions

Jacob

Last reported at 2018-Apr-24 19:46 UTC. Time now 2018-Apr-25 06:55 UTC.
Position N 09°31' W 079°56'.

Length 197 m; draft 10.3 m.

Type: Ship (hazmat cat A). MMSI: 341137000.

Date/timePositionNaut miles runAvg speedWind from/ knotsBaromVisibWave heightAir tempDewpointWater temp
2018-Apr-24 19:46N 09°31' W 079°56'0 0.0
2018-Apr-24 19:19N 09°31' W 079°56'0 0.0
2018-Apr-24 18:43N 09°31' W 079°56'0 0.1
2018-Apr-24 18:25N 09°31' W 079°56'0 0.0
2018-Apr-24 17:58N 09°31' W 079°56'0 0.0
2018-Apr-24 17:28N 09°31' W 079°56'0 0.0
2018-Apr-24 15:13N 09°31' W 079°56'0 0.0
2018-Apr-24 09:58N 09°31' W 079°56'0 0.0
2018-Apr-22 19:10N 09°31' W 079°56'0 0.4
2018-Apr-22 18:53N 09°31' W 079°56'1 2.0
2018-Apr-22 18:29N 09°32' W 079°56'  
2018-Apr-16 01:58N 25°25' W 079°36'714.2
2018-Apr-16 01:30N 25°32' W 079°38'713.7
2018-Apr-16 01:00N 25°38' W 079°39'713.4
2018-Apr-16 00:30N 25°45' W 079°41'612.7
2018-Apr-16 00:00N 25°50' W 079°45'612.3
2018-Apr-15 23:30N 25°55' W 079°50'611.7
2018-Apr-15 23:00N 25°59' W 079°54'510.6
2018-Apr-15 22:30N 26°03' W 079°58'510.4
2018-Apr-15 22:00N 26°06' W 080°03'4 7.2
2018-Apr-15 21:30N 26°05' W 080°07'1 1.8
2018-Apr-15 20:58N 26°04' W 080°07'0 0.0
2018-Apr-15 20:28N 26°04' W 080°07'0 0.0
2018-Apr-15 19:58N 26°04' W 080°07'0 0.0
2018-Apr-15 19:28N 26°04' W 080°07'0 0.0
2018-Apr-15 18:58N 26°04' W 080°07'0 0.0
2018-Apr-15 18:28N 26°04' W 080°07'0 0.0
2018-Apr-15 17:58N 26°04' W 080°07'0 0.0
2018-Apr-15 17:28N 26°04' W 080°07'0 0.0
2018-Apr-15 16:58N 26°04' W 080°07'0 0.0
2018-Apr-15 16:28N 26°04' W 080°07'0 0.0
2018-Apr-15 15:58N 26°04' W 080°07'0 0.0
2018-Apr-15 15:28N 26°04' W 080°07'0 0.0
2018-Apr-15 14:58N 26°04' W 080°07'0 0.0
2018-Apr-15 14:28N 26°04' W 080°07'0 0.0
2018-Apr-15 13:58N 26°04' W 080°07'0 0.0
2018-Apr-15 13:28N 26°04' W 080°07'0 0.0
2018-Apr-15 12:58N 26°04' W 080°07'0 0.0
2018-Apr-15 12:28N 26°04' W 080°07'0 0.0
2018-Apr-15 11:58N 26°04' W 080°07'0 0.0
2018-Apr-15 11:28N 26°04' W 080°07'0 0.0
2018-Apr-15 10:58N 26°04' W 080°07'0 0.0
2018-Apr-15 10:28N 26°04' W 080°07'0 0.0
2018-Apr-15 09:58N 26°04' W 080°07'0 0.0
2018-Apr-15 09:28N 26°04' W 080°07'0 0.0
2018-Apr-15 08:58N 26°04' W 080°07'0 0.0
2018-Apr-15 08:28N 26°04' W 080°07'0 0.0
2018-Apr-15 07:58N 26°04' W 080°07'0 0.0
2018-Apr-15 07:28N 26°04' W 080°07'0 0.0
2018-Apr-15 07:00N 26°04' W 080°07'1 2.6
2018-Apr-15 06:31N 26°06' W 080°07'5 9.9
2018-Apr-15 06:01N 26°06' W 080°01'3 5.4
2018-Apr-15 05:31N 26°07' W 079°58'4 7.5
2018-Apr-15 05:00N 26°08' W 079°55'4 7.5
2018-Apr-15 04:30N 26°09' W 079°51'4 7.0
2018-Apr-15 04:00N 26°11' W 079°47'3 6.7
2018-Apr-15 03:30N 26°12' W 079°44'5 9.3
2018-Apr-15 03:00N 26°13' W 079°39'611.1
2018-Apr-15 02:30N 26°15' W 079°33'611.6
2018-Apr-15 01:59N 26°17' W 079°27'  
Track history (hours):
 
Tides and Currents Weather Stations Pressure Air Temp Water Temp Dewpoint Dewpoint Depression Visibility Wind Speed Wind Dir Waves Ship Positions

Jacob

Last reported at 2018-Apr-24 19:46 UTC. Time now 2018-Apr-25 06:55 UTC.
Position N 09°31' W 079°56'.

Length 197 m; draft 10.3 m.

Type: Ship (hazmat cat A). MMSI: 341137000.

Date/timePositionNaut miles runAvg speedWind from/ knotsBaromVisibWave heightAir tempDewpointWater temp
2018-Apr-24 19:46N 09°31' W 079°56'0 0.0
2018-Apr-24 19:19N 09°31' W 079°56'0 0.0
2018-Apr-24 18:43N 09°31' W 079°56'0 0.1
2018-Apr-24 18:25N 09°31' W 079°56'0 0.0
2018-Apr-24 17:58N 09°31' W 079°56'0 0.0
2018-Apr-24 17:28N 09°31' W 079°56'0 0.0
2018-Apr-24 15:13N 09°31' W 079°56'0 0.0
2018-Apr-24 09:58N 09°31' W 079°56'0 0.0
2018-Apr-22 19:10N 09°31' W 079°56'0 0.4
2018-Apr-22 18:53N 09°31' W 079°56'1 2.0
2018-Apr-22 18:29N 09°32' W 079°56'  
2018-Apr-16 01:58N 25°25' W 079°36'714.2
2018-Apr-16 01:30N 25°32' W 079°38'713.7
2018-Apr-16 01:00N 25°38' W 079°39'713.4
2018-Apr-16 00:30N 25°45' W 079°41'612.7
2018-Apr-16 00:00N 25°50' W 079°45'612.3
2018-Apr-15 23:30N 25°55' W 079°50'611.7
2018-Apr-15 23:00N 25°59' W 079°54'510.6
2018-Apr-15 22:30N 26°03' W 079°58'510.4
2018-Apr-15 22:00N 26°06' W 080°03'4 7.2
2018-Apr-15 21:30N 26°05' W 080°07'1 1.8
2018-Apr-15 20:58N 26°04' W 080°07'0 0.0
2018-Apr-15 20:28N 26°04' W 080°07'0 0.0
2018-Apr-15 19:58N 26°04' W 080°07'0 0.0
2018-Apr-15 19:28N 26°04' W 080°07'0 0.0
2018-Apr-15 18:58N 26°04' W 080°07'0 0.0
2018-Apr-15 18:28N 26°04' W 080°07'0 0.0
2018-Apr-15 17:58N 26°04' W 080°07'0 0.0
2018-Apr-15 17:28N 26°04' W 080°07'0 0.0
2018-Apr-15 16:58N 26°04' W 080°07'0 0.0
2018-Apr-15 16:28N 26°04' W 080°07'0 0.0
2018-Apr-15 15:58N 26°04' W 080°07'0 0.0
2018-Apr-15 15:28N 26°04' W 080°07'0 0.0
2018-Apr-15 14:58N 26°04' W 080°07'0 0.0
2018-Apr-15 14:28N 26°04' W 080°07'0 0.0
2018-Apr-15 13:58N 26°04' W 080°07'0 0.0
2018-Apr-15 13:28N 26°04' W 080°07'0 0.0
2018-Apr-15 12:58N 26°04' W 080°07'0 0.0
2018-Apr-15 12:28N 26°04' W 080°07'0 0.0
2018-Apr-15 11:58N 26°04' W 080°07'0 0.0
2018-Apr-15 11:28N 26°04' W 080°07'0 0.0
2018-Apr-15 10:58N 26°04' W 080°07'0 0.0
2018-Apr-15 10:28N 26°04' W 080°07'0 0.0
2018-Apr-15 09:58N 26°04' W 080°07'0 0.0
2018-Apr-15 09:28N 26°04' W 080°07'0 0.0
2018-Apr-15 08:58N 26°04' W 080°07'0 0.0
2018-Apr-15 08:28N 26°04' W 080°07'0 0.0
2018-Apr-15 07:58N 26°04' W 080°07'0 0.0
2018-Apr-15 07:28N 26°04' W 080°07'0 0.0
2018-Apr-15 07:00N 26°04' W 080°07'1 2.6
2018-Apr-15 06:31N 26°06' W 080°07'5 9.9
2018-Apr-15 06:01N 26°06' W 080°01'3 5.4
2018-Apr-15 05:31N 26°07' W 079°58'4 7.5
2018-Apr-15 05:00N 26°08' W 079°55'4 7.5
2018-Apr-15 04:30N 26°09' W 079°51'4 7.0
2018-Apr-15 04:00N 26°11' W 079°47'3 6.7
2018-Apr-15 03:30N 26°12' W 079°44'5 9.3
2018-Apr-15 03:00N 26°13' W 079°39'611.1
2018-Apr-15 02:30N 26°15' W 079°33'611.6
2018-Apr-15 01:59N 26°17' W 079°27'  

Dump ship's entire track history